sensor_id;sensor_type;location;lat;lon;timestamp;P1;durP1;ratioP1;P2;durP2;ratioP2
67564;SDS011;54393;53.556;49.216;2022-07-29T00:00:36;5.00;;;4.55;;
67564;SDS011;54393;53.556;49.216;2022-07-29T00:03:02;4.93;;;4.60;;
67564;SDS011;54393;53.556;49.216;2022-07-29T00:05:29;4.90;;;4.50;;
67564;SDS011;54393;53.556;49.216;2022-07-29T00:07:55;4.93;;;4.53;;
67564;SDS011;54393;53.556;49.216;2022-07-29T00:10:22;4.20;;;3.90;;
67564;SDS011;54393;53.556;49.216;2022-07-29T00:12:48;4.87;;;4.37;;
67564;SDS011;54393;53.556;49.216;2022-07-29T00:15:14;4.70;;;4.30;;
67564;SDS011;54393;53.556;49.216;2022-07-29T00:17:41;4.85;;;4.47;;
67564;SDS011;54393;53.556;49.216;2022-07-29T00:20:08;4.87;;;4.55;;
67564;SDS011;54393;53.556;49.216;2022-07-29T00:22:36;4.97;;;4.57;;
67564;SDS011;54393;53.556;49.216;2022-07-29T00:25:03;4.50;;;4.18;;
67564;SDS011;54393;53.556;49.216;2022-07-29T00:27:30;4.85;;;4.47;;
67564;SDS011;54393;53.556;49.216;2022-07-29T00:29:57;5.30;;;4.82;;
67564;SDS011;54393;53.556;49.216;2022-07-29T00:32:23;4.75;;;4.35;;
67564;SDS011;54393;53.556;49.216;2022-07-29T00:34:50;5.68;;;4.65;;
67564;SDS011;54393;53.556;49.216;2022-07-29T00:37:35;4.75;;;4.35;;
67564;SDS011;54393;53.556;49.216;2022-07-29T00:40:02;4.43;;;4.12;;
67564;SDS011;54393;53.556;49.216;2022-07-29T00:42:29;4.50;;;4.10;;
67564;SDS011;54393;53.556;49.216;2022-07-29T00:44:55;5.05;;;4.65;;
67564;SDS011;54393;53.556;49.216;2022-07-29T00:47:21;4.55;;;4.20;;
67564;SDS011;54393;53.556;49.216;2022-07-29T00:49:48;5.15;;;4.75;;
67564;SDS011;54393;53.556;49.216;2022-07-29T00:52:14;4.90;;;4.50;;
67564;SDS011;54393;53.556;49.216;2022-07-29T00:54:41;5.00;;;4.60;;
67564;SDS011;54393;53.556;49.216;2022-07-29T00:57:08;4.30;;;4.00;;
67564;SDS011;54393;53.556;49.216;2022-07-29T00:59:34;4.65;;;4.25;;
67564;SDS011;54393;53.556;49.216;2022-07-29T01:02:02;5.20;;;4.70;;
67564;SDS011;54393;53.556;49.216;2022-07-29T01:04:28;5.18;;;4.68;;
67564;SDS011;54393;53.556;49.216;2022-07-29T01:06:55;4.87;;;4.45;;
67564;SDS011;54393;53.556;49.216;2022-07-29T01:09:22;4.60;;;4.28;;
67564;SDS011;54393;53.556;49.216;2022-07-29T01:11:49;4.82;;;4.43;;
67564;SDS011;54393;53.556;49.216;2022-07-29T01:14:16;4.80;;;4.40;;
67564;SDS011;54393;53.556;49.216;2022-07-29T01:16:49;5.75;;;4.43;;
67564;SDS011;54393;53.556;49.216;2022-07-29T01:19:33;4.72;;;4.32;;
67564;SDS011;54393;53.556;49.216;2022-07-29T01:23:01;5.03;;;4.57;;
67564;SDS011;54393;53.556;49.216;2022-07-29T01:25:40;4.68;;;4.28;;
67564;SDS011;54393;53.556;49.216;2022-07-29T01:31:03;4.82;;;4.43;;
67564;SDS011;54393;53.556;49.216;2022-07-29T01:33:33;5.15;;;4.68;;
67564;SDS011;54393;53.556;49.216;2022-07-29T01:36:20;5.22;;;4.82;;
67564;SDS011;54393;53.556;49.216;2022-07-29T01:38:54;5.10;;;4.70;;
67564;SDS011;54393;53.556;49.216;2022-07-29T01:41:25;4.70;;;4.30;;
67564;SDS011;54393;53.556;49.216;2022-07-29T01:43:57;6.03;;;4.70;;
67564;SDS011;54393;53.556;49.216;2022-07-29T01:46:31;5.30;;;4.57;;
67564;SDS011;54393;53.556;49.216;2022-07-29T01:49:02;4.70;;;4.20;;
67564;SDS011;54393;53.556;49.216;2022-07-29T01:51:58;5.55;;;5.05;;
67564;SDS011;54393;53.556;49.216;2022-07-29T01:54:43;4.97;;;4.57;;
67564;SDS011;54393;53.556;49.216;2022-07-29T01:57:15;5.47;;;4.97;;
67564;SDS011;54393;53.556;49.216;2022-07-29T01:59:43;4.50;;;4.10;;
67564;SDS011;54393;53.556;49.216;2022-07-29T02:02:11;5.55;;;4.70;;
67564;SDS011;54393;53.556;49.216;2022-07-29T02:04:40;4.85;;;4.45;;
67564;SDS011;54393;53.556;49.216;2022-07-29T02:07:09;4.97;;;4.57;;
67564;SDS011;54393;53.556;49.216;2022-07-29T02:09:39;5.68;;;5.18;;
67564;SDS011;54393;53.556;49.216;2022-07-29T02:12:07;5.60;;;5.10;;
67564;SDS011;54393;53.556;49.216;2022-07-29T02:14:37;5.12;;;4.43;;
67564;SDS011;54393;53.556;49.216;2022-07-29T02:17:06;5.20;;;4.70;;
67564;SDS011;54393;53.556;49.216;2022-07-29T02:19:32;5.28;;;4.78;;
67564;SDS011;54393;53.556;49.216;2022-07-29T02:22:00;5.07;;;4.62;;
67564;SDS011;54393;53.556;49.216;2022-07-29T02:24:27;5.03;;;4.55;;
67564;SDS011;54393;53.556;49.216;2022-07-29T02:26:55;4.47;;;4.18;;
67564;SDS011;54393;53.556;49.216;2022-07-29T02:29:23;4.35;;;4.05;;
67564;SDS011;54393;53.556;49.216;2022-07-29T02:31:51;4.90;;;4.50;;
67564;SDS011;54393;53.556;49.216;2022-07-29T02:34:19;4.75;;;4.35;;
67564;SDS011;54393;53.556;49.216;2022-07-29T02:36:46;5.40;;;4.90;;
67564;SDS011;54393;53.556;49.216;2022-07-29T02:39:13;5.37;;;4.87;;
67564;SDS011;54393;53.556;49.216;2022-07-29T02:41:45;4.70;;;4.30;;
67564;SDS011;54393;53.556;49.216;2022-07-29T02:44:15;4.80;;;4.40;;
67564;SDS011;54393;53.556;49.216;2022-07-29T02:49:28;4.60;;;4.25;;
67564;SDS011;54393;53.556;49.216;2022-07-29T02:52:06;5.90;;;4.68;;
67564;SDS011;54393;53.556;49.216;2022-07-29T02:58:13;5.20;;;4.80;;
67564;SDS011;54393;53.556;49.216;2022-07-29T03:01:04;4.60;;;4.20;;
67564;SDS011;54393;53.556;49.216;2022-07-29T03:03:39;4.90;;;4.50;;
67564;SDS011;54393;53.556;49.216;2022-07-29T03:06:07;5.93;;;4.55;;
67564;SDS011;54393;53.556;49.216;2022-07-29T03:08:33;5.20;;;4.70;;
67564;SDS011;54393;53.556;49.216;2022-07-29T03:11:01;4.90;;;4.50;;
67564;SDS011;54393;53.556;49.216;2022-07-29T03:13:27;5.00;;;4.50;;
67564;SDS011;54393;53.556;49.216;2022-07-29T03:15:55;5.55;;;4.80;;
67564;SDS011;54393;53.556;49.216;2022-07-29T03:18:23;4.50;;;4.10;;
67564;SDS011;54393;53.556;49.216;2022-07-29T03:20:50;4.70;;;4.30;;
67564;SDS011;54393;53.556;49.216;2022-07-29T03:23:20;5.05;;;4.55;;
67564;SDS011;54393;53.556;49.216;2022-07-29T03:25:52;5.03;;;4.53;;
67564;SDS011;54393;53.556;49.216;2022-07-29T03:28:19;4.75;;;4.35;;
67564;SDS011;54393;53.556;49.216;2022-07-29T03:30:46;5.65;;;5.15;;
67564;SDS011;54393;53.556;49.216;2022-07-29T03:33:12;4.70;;;4.40;;
67564;SDS011;54393;53.556;49.216;2022-07-29T03:35:39;4.93;;;4.43;;
67564;SDS011;54393;53.556;49.216;2022-07-29T03:38:06;7.12;;;5.30;;
67564;SDS011;54393;53.556;49.216;2022-07-29T03:40:38;5.43;;;4.93;;
67564;SDS011;54393;53.556;49.216;2022-07-29T03:43:15;5.30;;;4.60;;
67564;SDS011;54393;53.556;49.216;2022-07-29T03:45:44;5.68;;;5.10;;
67564;SDS011;54393;53.556;49.216;2022-07-29T03:48:14;5.05;;;4.65;;
67564;SDS011;54393;53.556;49.216;2022-07-29T03:50:41;5.18;;;4.68;;
67564;SDS011;54393;53.556;49.216;2022-07-29T03:53:08;4.68;;;4.28;;
67564;SDS011;54393;53.556;49.216;2022-07-29T03:55:45;6.12;;;5.53;;
67564;SDS011;54393;53.556;49.216;2022-07-29T03:58:16;5.07;;;4.57;;
67564;SDS011;54393;53.556;49.216;2022-07-29T04:00:44;4.93;;;4.53;;
67564;SDS011;54393;53.556;49.216;2022-07-29T04:03:11;5.30;;;4.80;;
67564;SDS011;54393;53.556;49.216;2022-07-29T04:05:37;5.03;;;4.62;;
67564;SDS011;54393;53.556;49.216;2022-07-29T04:08:04;5.30;;;4.75;;
67564;SDS011;54393;53.556;49.216;2022-07-29T04:10:31;5.20;;;4.78;;
67564;SDS011;54393;53.556;49.216;2022-07-29T04:12:58;5.55;;;5.05;;
67564;SDS011;54393;53.556;49.216;2022-07-29T04:15:25;5.32;;;4.80;;
67564;SDS011;54393;53.556;49.216;2022-07-29T04:17:54;5.62;;;4.60;;
67564;SDS011;54393;53.556;49.216;2022-07-29T04:20:20;4.90;;;4.45;;
67564;SDS011;54393;53.556;49.216;2022-07-29T04:22:47;4.95;;;4.45;;
67564;SDS011;54393;53.556;49.216;2022-07-29T04:25:13;5.00;;;4.60;;
67564;SDS011;54393;53.556;49.216;2022-07-29T04:27:40;5.18;;;4.70;;
67564;SDS011;54393;53.556;49.216;2022-07-29T04:30:25;4.65;;;4.25;;
67564;SDS011;54393;53.556;49.216;2022-07-29T04:32:51;5.82;;;4.65;;
67564;SDS011;54393;53.556;49.216;2022-07-29T04:35:19;4.95;;;4.55;;
67564;SDS011;54393;53.556;49.216;2022-07-29T04:37:45;5.12;;;4.72;;
67564;SDS011;54393;53.556;49.216;2022-07-29T04:40:12;4.75;;;4.05;;
67564;SDS011;54393;53.556;49.216;2022-07-29T04:42:39;5.37;;;4.87;;
67564;SDS011;54393;53.556;49.216;2022-07-29T04:45:05;4.97;;;4.53;;
67564;SDS011;54393;53.556;49.216;2022-07-29T04:47:32;5.35;;;4.68;;
67564;SDS011;54393;53.556;49.216;2022-07-29T04:49:59;4.57;;;4.18;;
67564;SDS011;54393;53.556;49.216;2022-07-29T04:52:25;5.00;;;4.60;;
67564;SDS011;54393;53.556;49.216;2022-07-29T04:54:52;5.00;;;4.50;;
67564;SDS011;54393;53.556;49.216;2022-07-29T04:57:18;5.47;;;4.93;;
67564;SDS011;54393;53.556;49.216;2022-07-29T04:59:45;4.72;;;4.32;;
67564;SDS011;54393;53.556;49.216;2022-07-29T05:02:11;4.95;;;4.55;;
67564;SDS011;54393;53.556;49.216;2022-07-29T05:04:37;5.15;;;4.65;;
67564;SDS011;54393;53.556;49.216;2022-07-29T05:07:04;4.47;;;4.07;;
67564;SDS011;54393;53.556;49.216;2022-07-29T05:09:30;4.82;;;4.43;;
67564;SDS011;54393;53.556;49.216;2022-07-29T05:11:57;4.70;;;4.28;;
67564;SDS011;54393;53.556;49.216;2022-07-29T05:14:24;4.18;;;3.87;;
67564;SDS011;54393;53.556;49.216;2022-07-29T05:16:53;5.20;;;4.70;;
67564;SDS011;54393;53.556;49.216;2022-07-29T05:19:21;4.97;;;4.43;;
67564;SDS011;54393;53.556;49.216;2022-07-29T05:21:48;4.72;;;4.32;;
67564;SDS011;54393;53.556;49.216;2022-07-29T05:24:15;4.68;;;4.28;;
67564;SDS011;54393;53.556;49.216;2022-07-29T05:26:42;4.65;;;4.25;;
67564;SDS011;54393;53.556;49.216;2022-07-29T05:29:08;4.65;;;4.25;;
67564;SDS011;54393;53.556;49.216;2022-07-29T05:31:36;5.12;;;4.72;;
67564;SDS011;54393;53.556;49.216;2022-07-29T05:34:02;5.10;;;4.35;;
67564;SDS011;54393;53.556;49.216;2022-07-29T05:36:29;4.62;;;4.22;;
67564;SDS011;54393;53.556;49.216;2022-07-29T05:38:55;5.10;;;4.60;;
67564;SDS011;54393;53.556;49.216;2022-07-29T05:41:22;5.10;;;4.62;;
67564;SDS011;54393;53.556;49.216;2022-07-29T05:43:49;4.80;;;4.40;;
67564;SDS011;54393;53.556;49.216;2022-07-29T05:46:15;4.70;;;4.35;;
67564;SDS011;54393;53.556;49.216;2022-07-29T05:48:42;5.03;;;4.53;;
67564;SDS011;54393;53.556;49.216;2022-07-29T05:51:08;5.65;;;4.60;;
67564;SDS011;54393;53.556;49.216;2022-07-29T05:53:35;5.22;;;4.78;;
67564;SDS011;54393;53.556;49.216;2022-07-29T05:56:02;6.93;;;5.68;;
67564;SDS011;54393;53.556;49.216;2022-07-29T05:58:30;6.50;;;4.85;;
67564;SDS011;54393;53.556;49.216;2022-07-29T06:00:58;5.72;;;5.15;;
67564;SDS011;54393;53.556;49.216;2022-07-29T06:03:25;5.28;;;4.82;;
67564;SDS011;54393;53.556;49.216;2022-07-29T06:05:52;7.00;;;5.70;;
67564;SDS011;54393;53.556;49.216;2022-07-29T06:08:19;5.37;;;4.90;;
67564;SDS011;54393;53.556;49.216;2022-07-29T06:10:45;6.05;;;5.37;;
67564;SDS011;54393;53.556;49.216;2022-07-29T06:13:12;5.70;;;5.20;;
67564;SDS011;54393;53.556;49.216;2022-07-29T06:15:41;6.03;;;5.28;;
67564;SDS011;54393;53.556;49.216;2022-07-29T06:18:08;5.70;;;5.20;;
67564;SDS011;54393;53.556;49.216;2022-07-29T06:20:35;6.12;;;5.53;;
67564;SDS011;54393;53.556;49.216;2022-07-29T06:23:02;5.82;;;5.32;;
67564;SDS011;54393;53.556;49.216;2022-07-29T06:25:29;8.60;;;5.05;;
67564;SDS011;54393;53.556;49.216;2022-07-29T06:27:59;5.55;;;5.05;;
67564;SDS011;54393;53.556;49.216;2022-07-29T06:30:26;5.10;;;4.65;;
67564;SDS011;54393;53.556;49.216;2022-07-29T06:32:54;5.57;;;5.00;;
67564;SDS011;54393;53.556;49.216;2022-07-29T06:35:20;5.70;;;5.20;;
67564;SDS011;54393;53.556;49.216;2022-07-29T06:37:47;5.70;;;5.20;;
67564;SDS011;54393;53.556;49.216;2022-07-29T06:40:13;6.32;;;4.82;;
67564;SDS011;54393;53.556;49.216;2022-07-29T06:42:58;6.37;;;5.77;;
67564;SDS011;54393;53.556;49.216;2022-07-29T06:45:24;5.80;;;5.28;;
67564;SDS011;54393;53.556;49.216;2022-07-29T06:47:51;6.53;;;6.03;;
67564;SDS011;54393;53.556;49.216;2022-07-29T06:50:18;7.45;;;5.80;;
67564;SDS011;54393;53.556;49.216;2022-07-29T06:52:45;6.93;;;5.60;;
67564;SDS011;54393;53.556;49.216;2022-07-29T06:55:11;6.03;;;5.53;;
67564;SDS011;54393;53.556;49.216;2022-07-29T06:57:38;5.85;;;5.35;;
67564;SDS011;54393;53.556;49.216;2022-07-29T07:00:04;6.03;;;5.55;;
67564;SDS011;54393;53.556;49.216;2022-07-29T07:02:31;6.05;;;5.47;;
67564;SDS011;54393;53.556;49.216;2022-07-29T07:04:58;6.25;;;5.53;;
67564;SDS011;54393;53.556;49.216;2022-07-29T07:07:24;9.05;;;6.22;;
67564;SDS011;54393;53.556;49.216;2022-07-29T07:09:51;7.37;;;5.35;;
67564;SDS011;54393;53.556;49.216;2022-07-29T07:12:18;5.65;;;5.15;;
67564;SDS011;54393;53.556;49.216;2022-07-29T07:14:44;6.03;;;5.53;;
67564;SDS011;54393;53.556;49.216;2022-07-29T07:17:11;6.20;;;5.62;;
67564;SDS011;54393;53.556;49.216;2022-07-29T07:19:37;6.07;;;5.47;;
67564;SDS011;54393;53.556;49.216;2022-07-29T07:22:04;6.10;;;5.50;;
67564;SDS011;54393;53.556;49.216;2022-07-29T07:24:30;5.70;;;5.20;;
67564;SDS011;54393;53.556;49.216;2022-07-29T07:26:57;5.40;;;4.85;;
67564;SDS011;54393;53.556;49.216;2022-07-29T07:29:23;5.20;;;4.80;;
67564;SDS011;54393;53.556;49.216;2022-07-29T07:31:50;5.60;;;5.10;;
67564;SDS011;54393;53.556;49.216;2022-07-29T07:34:16;7.07;;;4.82;;
67564;SDS011;54393;53.556;49.216;2022-07-29T07:36:43;5.18;;;4.78;;
67564;SDS011;54393;53.556;49.216;2022-07-29T07:39:10;5.43;;;4.90;;
67564;SDS011;54393;53.556;49.216;2022-07-29T07:41:36;5.75;;;5.25;;
67564;SDS011;54393;53.556;49.216;2022-07-29T07:44:03;5.93;;;5.43;;
67564;SDS011;54393;53.556;49.216;2022-07-29T07:46:30;5.60;;;4.87;;
67564;SDS011;54393;53.556;49.216;2022-07-29T07:48:56;5.32;;;4.93;;
67564;SDS011;54393;53.556;49.216;2022-07-29T07:51:23;5.57;;;5.10;;
67564;SDS011;54393;53.556;49.216;2022-07-29T07:53:49;5.10;;;4.70;;
67564;SDS011;54393;53.556;49.216;2022-07-29T07:56:16;6.25;;;5.65;;
67564;SDS011;54393;53.556;49.216;2022-07-29T07:58:43;6.20;;;4.95;;
67564;SDS011;54393;53.556;49.216;2022-07-29T08:01:09;5.95;;;5.45;;
67564;SDS011;54393;53.556;49.216;2022-07-29T08:03:36;5.82;;;5.22;;
67564;SDS011;54393;53.556;49.216;2022-07-29T08:06:03;5.97;;;5.35;;
67564;SDS011;54393;53.556;49.216;2022-07-29T08:08:30;5.62;;;5.05;;
67564;SDS011;54393;53.556;49.216;2022-07-29T08:10:56;5.47;;;4.97;;
67564;SDS011;54393;53.556;49.216;2022-07-29T08:13:24;5.90;;;5.40;;
67564;SDS011;54393;53.556;49.216;2022-07-29T08:15:55;6.28;;;5.60;;
67564;SDS011;54393;53.556;49.216;2022-07-29T08:18:30;5.97;;;5.45;;
67564;SDS011;54393;53.556;49.216;2022-07-29T08:20:57;6.80;;;6.15;;
67564;SDS011;54393;53.556;49.216;2022-07-29T08:23:23;5.82;;;5.32;;
67564;SDS011;54393;53.556;49.216;2022-07-29T08:25:52;6.15;;;5.55;;
67564;SDS011;54393;53.556;49.216;2022-07-29T08:28:18;6.10;;;5.60;;
67564;SDS011;54393;53.556;49.216;2022-07-29T08:30:45;6.37;;;5.78;;
67564;SDS011;54393;53.556;49.216;2022-07-29T08:33:11;6.10;;;5.60;;
67564;SDS011;54393;53.556;49.216;2022-07-29T08:35:38;5.93;;;5.40;;
67564;SDS011;54393;53.556;49.216;2022-07-29T08:38:05;6.05;;;5.50;;
67564;SDS011;54393;53.556;49.216;2022-07-29T08:40:31;5.78;;;5.28;;
67564;SDS011;54393;53.556;49.216;2022-07-29T08:42:59;5.62;;;5.07;;
67564;SDS011;54393;53.556;49.216;2022-07-29T08:45:42;5.62;;;5.22;;
67564;SDS011;54393;53.556;49.216;2022-07-29T08:48:14;6.40;;;5.80;;
67564;SDS011;54393;53.556;49.216;2022-07-29T08:50:43;5.68;;;5.22;;
67564;SDS011;54393;53.556;49.216;2022-07-29T08:53:14;7.90;;;5.03;;
67564;SDS011;54393;53.556;49.216;2022-07-29T08:55:46;5.85;;;5.32;;
67564;SDS011;54393;53.556;49.216;2022-07-29T08:58:14;6.50;;;5.90;;
67564;SDS011;54393;53.556;49.216;2022-07-29T09:00:41;6.70;;;5.75;;
67564;SDS011;54393;53.556;49.216;2022-07-29T09:03:14;5.90;;;5.10;;
67564;SDS011;54393;53.556;49.216;2022-07-29T09:05:44;5.95;;;5.35;;
67564;SDS011;54393;53.556;49.216;2022-07-29T09:08:11;5.75;;;5.15;;
67564;SDS011;54393;53.556;49.216;2022-07-29T09:10:38;6.90;;;6.20;;
67564;SDS011;54393;53.556;49.216;2022-07-29T09:13:05;7.12;;;5.85;;
67564;SDS011;54393;53.556;49.216;2022-07-29T09:15:31;9.10;;;6.12;;
67564;SDS011;54393;53.556;49.216;2022-07-29T09:17:58;8.38;;;5.87;;
67564;SDS011;54393;53.556;49.216;2022-07-29T09:20:26;5.78;;;5.18;;
67564;SDS011;54393;53.556;49.216;2022-07-29T09:23:13;6.18;;;5.65;;
67564;SDS011;54393;53.556;49.216;2022-07-29T09:25:40;7.97;;;5.60;;
67564;SDS011;54393;53.556;49.216;2022-07-29T09:28:14;7.10;;;5.35;;
67564;SDS011;54393;53.556;49.216;2022-07-29T09:30:54;6.37;;;5.55;;
67564;SDS011;54393;53.556;49.216;2022-07-29T09:33:22;6.22;;;5.12;;
67564;SDS011;54393;53.556;49.216;2022-07-29T09:41:21;5.47;;;4.97;;
67564;SDS011;54393;53.556;49.216;2022-07-29T09:43:57;7.35;;;5.40;;
67564;SDS011;54393;53.556;49.216;2022-07-29T09:46:25;14.82;;;5.97;;
67564;SDS011;54393;53.556;49.216;2022-07-29T09:51:37;14.75;;;8.38;;
67564;SDS011;54393;53.556;49.216;2022-07-29T09:54:20;11.57;;;6.95;;
67564;SDS011;54393;53.556;49.216;2022-07-29T09:56:51;9.57;;;6.62;;
67564;SDS011;54393;53.556;49.216;2022-07-29T09:59:18;11.23;;;5.70;;
67564;SDS011;54393;53.556;49.216;2022-07-29T10:01:51;12.50;;;6.32;;
67564;SDS011;54393;53.556;49.216;2022-07-29T10:04:19;10.05;;;6.50;;
67564;SDS011;54393;53.556;49.216;2022-07-29T10:06:55;15.27;;;6.50;;
67564;SDS011;54393;53.556;49.216;2022-07-29T10:09:25;8.88;;;5.78;;
67564;SDS011;54393;53.556;49.216;2022-07-29T10:14:36;8.65;;;5.87;;
67564;SDS011;54393;53.556;49.216;2022-07-29T10:17:04;6.93;;;5.10;;
67564;SDS011;54393;53.556;49.216;2022-07-29T10:19:31;6.15;;;5.50;;
67564;SDS011;54393;53.556;49.216;2022-07-29T10:21:59;8.10;;;5.75;;
67564;SDS011;54393;53.556;49.216;2022-07-29T10:24:26;6.07;;;5.53;;
67564;SDS011;54393;53.556;49.216;2022-07-29T10:26:58;5.80;;;5.20;;
67564;SDS011;54393;53.556;49.216;2022-07-29T10:29:26;6.87;;;5.45;;
67564;SDS011;54393;53.556;49.216;2022-07-29T10:34:23;5.22;;;4.82;;
67564;SDS011;54393;53.556;49.216;2022-07-29T10:39:37;7.62;;;5.25;;
67564;SDS011;54393;53.556;49.216;2022-07-29T10:42:13;5.62;;;5.20;;
67564;SDS011;54393;53.556;49.216;2022-07-29T10:44:43;6.87;;;4.87;;
67564;SDS011;54393;53.556;49.216;2022-07-29T10:47:23;5.10;;;4.60;;
67564;SDS011;54393;53.556;49.216;2022-07-29T10:50:00;5.12;;;4.70;;
67564;SDS011;54393;53.556;49.216;2022-07-29T10:52:51;5.47;;;4.97;;
67564;SDS011;54393;53.556;49.216;2022-07-29T10:55:32;5.00;;;4.30;;
67564;SDS011;54393;53.556;49.216;2022-07-29T11:00:44;6.87;;;4.82;;
67564;SDS011;54393;53.556;49.216;2022-07-29T11:04:00;6.47;;;5.05;;
67564;SDS011;54393;53.556;49.216;2022-07-29T11:06:08;4.45;;;4.05;;
67564;SDS011;54393;53.556;49.216;2022-07-29T11:08:34;6.45;;;4.80;;
67564;SDS011;54393;53.556;49.216;2022-07-29T11:13:50;5.57;;;4.80;;
67564;SDS011;54393;53.556;49.216;2022-07-29T11:16:17;6.55;;;4.40;;
67564;SDS011;54393;53.556;49.216;2022-07-29T11:21:36;5.30;;;4.80;;
67564;SDS011;54393;53.556;49.216;2022-07-29T11:24:19;5.07;;;4.68;;
67564;SDS011;54393;53.556;49.216;2022-07-29T11:27:06;7.35;;;4.72;;
67564;SDS011;54393;53.556;49.216;2022-07-29T11:29:48;5.22;;;4.72;;
67564;SDS011;54393;53.556;49.216;2022-07-29T11:32:18;4.50;;;4.10;;
67564;SDS011;54393;53.556;49.216;2022-07-29T11:34:46;5.20;;;4.50;;
67564;SDS011;54393;53.556;49.216;2022-07-29T11:37:14;4.72;;;4.22;;
67564;SDS011;54393;53.556;49.216;2022-07-29T11:39:42;5.30;;;4.80;;
67564;SDS011;54393;53.556;49.216;2022-07-29T11:44:54;4.97;;;4.47;;
67564;SDS011;54393;53.556;49.216;2022-07-29T11:47:25;5.28;;;4.78;;
67564;SDS011;54393;53.556;49.216;2022-07-29T11:49:52;5.22;;;4.20;;
67564;SDS011;54393;53.556;49.216;2022-07-29T11:52:21;7.75;;;4.50;;
67564;SDS011;54393;53.556;49.216;2022-07-29T11:54:48;6.07;;;4.40;;
67564;SDS011;54393;53.556;49.216;2022-07-29T11:57:19;5.95;;;5.00;;
67564;SDS011;54393;53.556;49.216;2022-07-29T11:59:46;6.45;;;3.97;;
67564;SDS011;54393;53.556;49.216;2022-07-29T12:02:13;4.85;;;4.37;;
67564;SDS011;54393;53.556;49.216;2022-07-29T12:04:56;4.45;;;4.15;;
67564;SDS011;54393;53.556;49.216;2022-07-29T12:07:31;4.70;;;4.30;;
67564;SDS011;54393;53.556;49.216;2022-07-29T12:09:58;4.50;;;4.12;;
67564;SDS011;54393;53.556;49.216;2022-07-29T12:12:25;4.40;;;4.00;;
67564;SDS011;54393;53.556;49.216;2022-07-29T12:14:51;4.45;;;4.15;;
67564;SDS011;54393;53.556;49.216;2022-07-29T12:17:26;4.93;;;4.47;;
67564;SDS011;54393;53.556;49.216;2022-07-29T12:19:54;3.95;;;3.55;;
67564;SDS011;54393;53.556;49.216;2022-07-29T12:22:28;4.82;;;4.22;;
67564;SDS011;54393;53.556;49.216;2022-07-29T12:25:00;4.55;;;4.15;;
67564;SDS011;54393;53.556;49.216;2022-07-29T12:27:28;4.28;;;3.87;;
67564;SDS011;54393;53.556;49.216;2022-07-29T12:29:56;4.70;;;4.20;;
67564;SDS011;54393;53.556;49.216;2022-07-29T12:32:30;4.07;;;3.67;;
67564;SDS011;54393;53.556;49.216;2022-07-29T12:34:59;5.43;;;4.12;;
67564;SDS011;54393;53.556;49.216;2022-07-29T12:37:30;3.97;;;3.67;;
67564;SDS011;54393;53.556;49.216;2022-07-29T12:40:03;4.80;;;4.40;;
67564;SDS011;54393;53.556;49.216;2022-07-29T12:42:31;4.70;;;4.30;;
67564;SDS011;54393;53.556;49.216;2022-07-29T12:44:58;5.12;;;4.20;;
67564;SDS011;54393;53.556;49.216;2022-07-29T12:47:25;4.12;;;3.83;;
67564;SDS011;54393;53.556;49.216;2022-07-29T12:50:06;3.97;;;3.67;;
67564;SDS011;54393;53.556;49.216;2022-07-29T12:52:34;4.15;;;3.85;;
67564;SDS011;54393;53.556;49.216;2022-07-29T12:55:01;4.12;;;3.83;;
67564;SDS011;54393;53.556;49.216;2022-07-29T12:57:28;4.50;;;4.10;;
67564;SDS011;54393;53.556;49.216;2022-07-29T12:59:58;4.30;;;3.90;;
67564;SDS011;54393;53.556;49.216;2022-07-29T13:02:28;4.15;;;3.75;;
67564;SDS011;54393;53.556;49.216;2022-07-29T13:04:55;5.25;;;4.12;;
67564;SDS011;54393;53.556;49.216;2022-07-29T13:07:23;4.25;;;3.78;;
67564;SDS011;54393;53.556;49.216;2022-07-29T13:09:52;4.30;;;3.97;;
67564;SDS011;54393;53.556;49.216;2022-07-29T13:12:19;4.68;;;4.25;;
67564;SDS011;54393;53.556;49.216;2022-07-29T13:14:47;4.65;;;4.22;;
67564;SDS011;54393;53.556;49.216;2022-07-29T13:17:14;4.20;;;3.90;;
67564;SDS011;54393;53.556;49.216;2022-07-29T13:19:43;3.95;;;3.65;;
67564;SDS011;54393;53.556;49.216;2022-07-29T13:22:11;4.30;;;3.97;;
67564;SDS011;54393;53.556;49.216;2022-07-29T13:24:46;4.75;;;4.18;;
67564;SDS011;54393;53.556;49.216;2022-07-29T13:27:16;4.40;;;4.00;;
67564;SDS011;54393;53.556;49.216;2022-07-29T13:29:43;3.70;;;3.42;;
67564;SDS011;54393;53.556;49.216;2022-07-29T13:32:10;3.87;;;3.60;;
67564;SDS011;54393;53.556;49.216;2022-07-29T13:34:37;4.05;;;3.75;;
67564;SDS011;54393;53.556;49.216;2022-07-29T13:37:04;4.20;;;3.90;;
67564;SDS011;54393;53.556;49.216;2022-07-29T13:39:30;4.20;;;3.60;;
67564;SDS011;54393;53.556;49.216;2022-07-29T13:41:57;3.97;;;3.67;;
67564;SDS011;54393;53.556;49.216;2022-07-29T13:44:23;4.12;;;3.83;;
67564;SDS011;54393;53.556;49.216;2022-07-29T13:46:50;4.15;;;3.80;;
67564;SDS011;54393;53.556;49.216;2022-07-29T13:49:16;4.10;;;3.80;;
67564;SDS011;54393;53.556;49.216;2022-07-29T13:51:43;4.40;;;4.00;;
67564;SDS011;54393;53.556;49.216;2022-07-29T13:54:09;3.92;;;3.62;;
67564;SDS011;54393;53.556;49.216;2022-07-29T13:56:36;4.00;;;3.70;;
67564;SDS011;54393;53.556;49.216;2022-07-29T13:59:02;3.70;;;3.40;;
67564;SDS011;54393;53.556;49.216;2022-07-29T14:01:29;3.75;;;3.45;;
67564;SDS011;54393;53.556;49.216;2022-07-29T14:03:55;4.12;;;3.83;;
67564;SDS011;54393;53.556;49.216;2022-07-29T14:06:22;4.25;;;3.85;;
67564;SDS011;54393;53.556;49.216;2022-07-29T14:08:48;3.97;;;3.67;;
67564;SDS011;54393;53.556;49.216;2022-07-29T14:11:15;4.20;;;3.90;;
67564;SDS011;54393;53.556;49.216;2022-07-29T14:13:41;3.97;;;3.60;;
67564;SDS011;54393;53.556;49.216;2022-07-29T14:16:08;3.85;;;3.55;;
67564;SDS011;54393;53.556;49.216;2022-07-29T14:18:34;4.10;;;3.80;;
67564;SDS011;54393;53.556;49.216;2022-07-29T14:21:01;4.50;;;4.10;;
67564;SDS011;54393;53.556;49.216;2022-07-29T14:23:28;3.90;;;3.60;;
67564;SDS011;54393;53.556;49.216;2022-07-29T14:25:54;4.22;;;3.83;;
67564;SDS011;54393;53.556;49.216;2022-07-29T14:28:20;3.85;;;3.47;;
67564;SDS011;54393;53.556;49.216;2022-07-29T14:30:47;3.90;;;3.40;;
67564;SDS011;54393;53.556;49.216;2022-07-29T14:33:13;3.70;;;3.40;;
67564;SDS011;54393;53.556;49.216;2022-07-29T14:35:40;4.18;;;3.78;;
67564;SDS011;54393;53.556;49.216;2022-07-29T14:38:06;3.83;;;3.53;;
67564;SDS011;54393;53.556;49.216;2022-07-29T14:40:33;3.83;;;3.47;;
67564;SDS011;54393;53.556;49.216;2022-07-29T14:43:00;3.78;;;3.47;;
67564;SDS011;54393;53.556;49.216;2022-07-29T14:45:26;4.00;;;3.70;;
67564;SDS011;54393;53.556;49.216;2022-07-29T14:47:53;3.92;;;3.60;;
67564;SDS011;54393;53.556;49.216;2022-07-29T14:50:20;3.67;;;3.37;;
67564;SDS011;54393;53.556;49.216;2022-07-29T14:52:46;3.42;;;3.22;;
67564;SDS011;54393;53.556;49.216;2022-07-29T14:55:13;4.30;;;3.90;;
67564;SDS011;54393;53.556;49.216;2022-07-29T14:57:40;4.20;;;3.90;;
67564;SDS011;54393;53.556;49.216;2022-07-29T15:00:06;3.78;;;3.45;;
67564;SDS011;54393;53.556;49.216;2022-07-29T15:02:34;3.25;;;3.05;;
67564;SDS011;54393;53.556;49.216;2022-07-29T15:05:00;3.72;;;3.30;;
67564;SDS011;54393;53.556;49.216;2022-07-29T15:07:27;3.72;;;3.42;;
67564;SDS011;54393;53.556;49.216;2022-07-29T15:09:54;4.10;;;3.80;;
67564;SDS011;54393;53.556;49.216;2022-07-29T15:12:20;6.87;;;4.60;;
67564;SDS011;54393;53.556;49.216;2022-07-29T15:14:46;4.22;;;3.80;;
67564;SDS011;54393;53.556;49.216;2022-07-29T15:17:13;4.03;;;3.60;;
67564;SDS011;54393;53.556;49.216;2022-07-29T15:19:39;3.62;;;3.42;;